Back to Top

My Weather Underground Personal Weather Station Historical Data with Graphs...

Delerius Weather Station Historical Data
Daily Summary for October 24, 2020 Units:  Metric    English   Both
Daily Weekly Monthly Yearly
  High: Low: Average:
Temperature: 13.9 °C 6.2 °C 9.9 °C
Dew Point: 11.9 °C 4.7 °C 8.5 °C
Humidity: 96% 87% 91%
Wind Speed: 48.4km/h 4.1km/h 25.7km/h
Wind Gust: 70.8km/h - -
Wind- - SSW
Pressure: 1006.9 hPa 990.0 hPa -
Precipitation: 9.9 mm    
 
 
Tabular Data for October 24, 2020
Time Temperature Dew Point Pressure Wind Wind Speed Wind Gust Humidity Rainfall Rate (Hourly) solar
00:04 6.9 °C 5.4 °C 1006.9 hPa SSW 19.4 km/h 25.7 km/h 90% 0.0 mm 0 W/m2
00:09 6.9 °C 5.3 °C 1006.9 hPa SSW 19.8 km/h 25.7 km/h 89.4% 0.0 mm 0 W/m2
00:14 6.9 °C 5.2 °C 1006.8 hPa SSW 17.8 km/h 25.7 km/h 89% 0.0 mm 0 W/m2
00:19 7 °C 5.3 °C 1006.7 hPa SSW 19.2 km/h 25.7 km/h 89% 0.0 mm 0 W/m2
00:24 7 °C 5.4 °C 1006.6 hPa SSW 21.7 km/h 29 km/h 89% 0.0 mm 0 W/m2
00:29 7.1 °C 5.4 °C 1006.6 hPa SSW 22.3 km/h 32.2 km/h 89% 0.0 mm 0 W/m2
00:34 7.1 °C 5.4 °C 1006.5 hPa SSW 21.8 km/h 30.6 km/h 89% 0.0 mm 0 W/m2
00:39 7 °C 5.3 °C 1006.5 hPa SSW 22.9 km/h 32.2 km/h 89% 0.0 mm 0 W/m2
00:44 6.9 °C 5.2 °C 1006.5 hPa SSW 24 km/h 32.2 km/h 89% 0.0 mm 0 W/m2
00:49 6.8 °C 5.1 °C 1006.4 hPa SSW 22.4 km/h 29 km/h 89% 0.0 mm 0 W/m2
00:54 6.6 °C 4.9 °C 1006.3 hPa SSW 21.3 km/h 29 km/h 89% 0.0 mm 0 W/m2
00:59 6.4 °C 4.8 °C 1006.3 hPa SSW 22.3 km/h 29 km/h 89.8% 0.0 mm 0 W/m2
01:04 6.3 °C 4.8 °C 1006.3 hPa SSW 21.7 km/h 29 km/h 90% 0.0 mm 0 W/m2
01:09 6.3 °C 4.8 °C 1006.3 hPa SSW 20.7 km/h 25.7 km/h 90% 0.0 mm 0 W/m2
01:14 6.3 °C 4.8 °C 1006.3 hPa SSW 21 km/h 30.6 km/h 90.3% 0.0 mm 0 W/m2
01:19 6.3 °C 4.9 °C 1006.3 hPa SSW 22.5 km/h 30.6 km/h 91% 0.0 mm 0 W/m2
01:24 6.3 °C 4.9 °C 1006.3 hPa SSW 21.9 km/h 30.6 km/h 91% 0.0 mm 0 W/m2
01:29 6.3 °C 4.9 °C 1006.3 hPa SSW 23.9 km/h 32.2 km/h 91% 0.0 mm 0 W/m2
01:34 6.4 °C 5.1 °C 1006.4 hPa SSW 26.9 km/h 37 km/h 91% 0.0 mm 0 W/m2
01:39 6.6 °C 5 °C 1006.3 hPa SSW 27 km/h 37 km/h 90.1% 0.0 mm 0 W/m2
01:44 6.6 °C 5.1 °C 1006.2 hPa SSW 26.5 km/h 35.4 km/h 90% 0.0 mm 0 W/m2
01:49 6.5 °C 5 °C 1006.1 hPa SSW 24.4 km/h 32.2 km/h 90% 0.0 mm 0 W/m2
01:54 6.5 °C 5 °C 1006.1 hPa SSW 24.9 km/h 37 km/h 90% 0.0 mm 0 W/m2
01:59 6.5 °C 5 °C 1006.1 hPa SSW 26.1 km/h 35.4 km/h 90% 0.0 mm 0 W/m2
02:04 6.5 °C 5 °C 1006.1 hPa SSW 25.8 km/h 33.8 km/h 90% 0.0 mm 0 W/m2
02:09 6.5 °C 5 °C 1006.0 hPa SSW 24.6 km/h 35.4 km/h 90% 0.0 mm 0 W/m2
02:14 6.6 °C 5.1 °C 1006.0 hPa SSW 25.7 km/h 37 km/h 90% 0.0 mm 0 W/m2
02:19 6.6 °C 4.9 °C 1005.9 hPa SSW 23.2 km/h 37 km/h 89.3% 0.0 mm 0 W/m2
02:24 6.6 °C 4.9 °C 1005.8 hPa SSW 24.6 km/h 32.2 km/h 89.4% 0.0 mm 0 W/m2
02:29 6.7 °C 5 °C 1005.7 hPa SSW 23.7 km/h 33.8 km/h 89% 0.0 mm 0 W/m2
02:34 6.6 °C 4.9 °C 1005.7 hPa South 19.9 km/h 25.7 km/h 89% 0.0 mm 0 W/m2
02:39 6.5 °C 4.8 °C 1005.7 hPa South 17.6 km/h 29 km/h 89% 0.0 mm 0 W/m2
02:44 6.4 °C 4.8 °C 1005.5 hPa South 20.6 km/h 35.4 km/h 89.2% 0.0 mm 0 W/m2
02:49 6.4 °C 4.9 °C 1005.5 hPa South 26.2 km/h 37 km/h 89.8% 0.0 mm 0 W/m2
02:54 6.3 °C 4.8 °C 1005.4 hPa South 25.6 km/h 37 km/h 90% 0.0 mm 0 W/m2
02:59 6.3 °C 4.8 °C 1005.4 hPa South 22.8 km/h 37 km/h 90% 0.0 mm 0 W/m2
03:04 6.2 °C 4.7 °C 1005.2 hPa South 24.2 km/h 32.2 km/h 90% 0.0 mm 0 W/m2
03:09 6.3 °C 4.8 °C 1005.1 hPa South 22.6 km/h 32.2 km/h 90% 0.0 mm 0 W/m2
03:14 6.3 °C 4.8 °C 1005.1 hPa South 20.6 km/h 32.2 km/h 90% 0.0 mm 0 W/m2
03:19 6.3 °C 4.7 °C 1005.0 hPa South 20.9 km/h 29 km/h 90% 0.0 mm 0 W/m2
03:24 6.2 °C 4.7 °C 1004.9 hPa South 20.9 km/h 32.2 km/h 90% 0.0 mm 0 W/m2
03:29 6.2 °C 4.7 °C 1004.8 hPa South 22 km/h 32.2 km/h 90.2% 0.0 mm 0 W/m2
03:34 6.3 °C 4.9 °C 1004.6 hPa South 23.7 km/h 33.8 km/h 90.8% 0.0 mm 0 W/m2
03:39 6.4 °C 5 °C 1004.4 hPa South 20.4 km/h 33.8 km/h 91% 0.0 mm 0 W/m2
03:44 6.7 °C 5.3 °C 1004.1 hPa South 19.8 km/h 32.2 km/h 91% 0.0 mm 0 W/m2
03:49 6.9 °C 5.6 °C 1004.2 hPa South 22.6 km/h 37 km/h 91% 0.0 mm 0 W/m2
03:54 7.2 °C 5.6 °C 1004.3 hPa South 25.7 km/h 37 km/h 90.1% 0.0 mm 0 W/m2
03:59 7.2 °C 5.7 °C 1004.3 hPa South 25.1 km/h 40.2 km/h 90% 0.0 mm 0 W/m2
04:04 7.2 °C 5.7 °C 1004.2 hPa South 27.4 km/h 40.2 km/h 90% 0.0 mm 0 W/m2
04:09 7.2 °C 5.7 °C 1004.0 hPa South 22.7 km/h 35.4 km/h 90% 0.0 mm 0 W/m2
04:14 7.2 °C 5.7 °C 1003.8 hPa South 23.4 km/h 33.8 km/h 90% 0.0 mm 0 W/m2
04:19 7.2 °C 5.7 °C 1003.8 hPa South 23 km/h 37 km/h 90% 0.0 mm 0 W/m2
04:24 7.2 °C 5.7 °C 1003.7 hPa South 21.5 km/h 37 km/h 90% 0.0 mm 0 W/m2
04:29 7.3 °C 5.8 °C 1003.5 hPa South 25.3 km/h 43.5 km/h 90% 0.0 mm 0 W/m2
04:34 7.3 °C 5.6 °C 1003.4 hPa South 29 km/h 43.5 km/h 89.1% 0.0 mm 0 W/m2
04:39 7.4 °C 5.7 °C 1003.2 hPa South 23.4 km/h 38.6 km/h 89% 0.0 mm 0 W/m2
04:44 7.4 °C 5.7 °C 1003.2 hPa South 22.1 km/h 38.6 km/h 89% 0.0 mm 0 W/m2
04:49 7.4 °C 5.7 °C 1003.2 hPa South 24.7 km/h 38.6 km/h 89% 0.0 mm 0 W/m2
04:54 7.4 °C 5.7 °C 1003.2 hPa South 24.2 km/h 40.2 km/h 89% 0.0 mm 0 W/m2
04:59 7.4 °C 5.7 °C 1003.2 hPa South 22.1 km/h 40.2 km/h 89% 0.0 mm 0 W/m2
05:04 7.4 °C 5.7 °C 1003.2 hPa South 18.1 km/h 29 km/h 89% 0.0 mm 0 W/m2
05:09 7.3 °C 5.6 °C 1003.2 hPa South 17.5 km/h 30.6 km/h 89% 0.0 mm 0 W/m2
05:14 7.3 °C 5.6 °C 1003.3 hPa South 16.5 km/h 37 km/h 89% 0.0 mm 0 W/m2
05:19 7.3 °C 5.6 °C 1003.3 hPa South 20.5 km/h 37 km/h 89% 0.0 mm 0 W/m2
05:24 7.4 °C 5.7 °C 1003.4 hPa South 22.1 km/h 40.2 km/h 89% 0.0 mm 0 W/m2
05:29 7.3 °C 5.6 °C 1003.4 hPa South 18.4 km/h 32.2 km/h 89% 0.0 mm 0 W/m2
05:34 7.3 °C 5.6 °C 1003.1 hPa South 16.3 km/h 25.7 km/h 89% 0.0 mm 0 W/m2
05:39 7.3 °C 5.6 °C 1003.1 hPa SSE 14.9 km/h 20.9 km/h 89% 0.0 mm 0 W/m2
05:44 7.2 °C 5.5 °C 1003.0 hPa SSE 14.2 km/h 24.1 km/h 88.6% 0.0 mm 0 W/m2
05:49 7.1 °C 5.3 °C 1002.8 hPa SSE 14.9 km/h 24.1 km/h 88.5% 0.0 mm 0 W/m2
05:54 7.1 °C 5.5 °C 1002.6 hPa SSE 16.9 km/h 29 km/h 89.3% 0.0 mm 0 W/m2
05:59 7.3 °C 5.6 °C 1002.3 hPa SSE 15.7 km/h 29 km/h 89.2% 0.0 mm 0 W/m2
06:04 7.4 °C 5.7 °C 1002.0 hPa South 23.9 km/h 40.2 km/h 89% 0.0 mm 0 W/m2
06:09 7.6 °C 5.9 °C 1001.8 hPa South 26.7 km/h 45.1 km/h 88.7% 0.0 mm 0 W/m2
06:14 7.7 °C 5.9 °C 1001.6 hPa South 28.8 km/h 49.9 km/h 88% 0.0 mm 0 W/m2
06:19 7.8 °C 6 °C 1001.6 hPa South 29.9 km/h 49.9 km/h 88% 0.0 mm 0 W/m2
06:24 7.9 °C 6 °C 1001.6 hPa South 31.1 km/h 43.5 km/h 87.5% 0.0 mm 0 W/m2
06:29 8.1 °C 6 °C 1001.9 hPa South 26.6 km/h 41.8 km/h 87% 0.0 mm 0 W/m2
06:34 8.1 °C 6 °C 1001.9 hPa South 31.2 km/h 48.3 km/h 87% 0.0 mm 0 W/m2
06:39 8 °C 6 °C 1001.6 hPa South 32.2 km/h 48.3 km/h 87% 0.0 mm 0 W/m2
06:44 8 °C 5.9 °C 1001.3 hPa South 28.6 km/h 48.3 km/h 87% 0.0 mm 0 W/m2
06:49 8 °C 6 °C 1001.1 hPa South 26.2 km/h 45.1 km/h 87% 0.0 mm 0 W/m2
06:54 8.1 °C 6 °C 1001.2 hPa South 27 km/h 40.2 km/h 87% 0.0 mm 0 W/m2
06:59 8 °C 5.9 °C 1001.1 hPa South 23.9 km/h 38.6 km/h 87% 0.0 mm 0 W/m2
07:04 7.9 °C 5.9 °C 1000.8 hPa SSE 21.7 km/h 38.6 km/h 87% 0.0 mm 0 W/m2
07:09 7.8 °C 5.8 °C 1000.5 hPa SSE 20.8 km/h 40.2 km/h 87% 0.0 mm 0 W/m2
07:14 7.8 °C 5.8 °C 1000.5 hPa SSE 19.8 km/h 40.2 km/h 87.2% 0.0 mm 0 W/m2
07:19 7.7 °C 5.8 °C 1000.7 hPa South 24.8 km/h 40.2 km/h 87.8% 0.0 mm 0 W/m2
07:24 7.6 °C 5.8 °C 1000.7 hPa South 26.2 km/h 40.2 km/h 88.2% 0.0 mm 0 W/m2
07:29 7.6 °C 5.9 °C 1000.5 hPa South 24.7 km/h 38.6 km/h 88.9% 0.0 mm 0 W/m2
07:34 7.6 °C 5.9 °C 1000.4 hPa SSE 20.6 km/h 37 km/h 89% 0.0 mm 0 W/m2
07:39 7.7 °C 5.9 °C 1000.4 hPa South 19.3 km/h 33.8 km/h 89% 0.0 mm 0 W/m2
07:44 7.7 °C 6.1 °C 1000.3 hPa South 20.7 km/h 40.2 km/h 89.2% 0.0 mm 0 W/m2
07:49 7.8 °C 6.3 °C 1000.3 hPa South 23.3 km/h 41.8 km/h 90% 0.0 mm 0 W/m2
07:54 7.9 °C 6.3 °C 1000.4 hPa South 23.5 km/h 41.8 km/h 90% 0.0 mm 0 W/m2
07:59 7.9 °C 6.3 °C 1000.4 hPa South 28 km/h 43.5 km/h 90% 0.0 mm 5 W/m2
08:04 7.9 °C 6.3 °C 1000.2 hPa South 24.5 km/h 43.5 km/h 90% 0.0 mm 9 W/m2
08:09 7.9 °C 6.3 °C 1000.1 hPa South 24.2 km/h 38.6 km/h 90% 0.0 mm 11 W/m2
08:14 7.9 °C 6.4 °C 1000.1 hPa South 24.5 km/h 40.2 km/h 90% 0.0 mm 16 W/m2
08:19 8 °C 6.4 °C 999.9 hPa South 21.9 km/h 38.6 km/h 90% 0.0 mm 19 W/m2
08:24 8.1 °C 6.5 °C 999.8 hPa South 23.5 km/h 38.6 km/h 90% 0.0 mm 19 W/m2
08:29 8.1 °C 6.6 °C 1000.0 hPa South 23.1 km/h 37 km/h 90% 0.0 mm 19 W/m2
08:34 8.2 °C 6.7 °C 1000.0 hPa South 25.1 km/h 41.8 km/h 90% 0.0 mm 21 W/m2
08:39 8.3 °C 6.8 °C 999.9 hPa South 29.6 km/h 46.7 km/h 90% 0.0 mm 25 W/m2
08:44 8.4 °C 6.8 °C 999.8 hPa South 27.3 km/h 46.7 km/h 90% 0.0 mm 25 W/m2
08:49 8.5 °C 6.9 °C 999.7 hPa South 26 km/h 40.2 km/h 90% 0.0 mm 33 W/m2
08:54 8.6 °C 7.1 °C 999.6 hPa South 27.4 km/h 41.8 km/h 90% 0.0 mm 33 W/m2
08:59 8.7 °C 7.1 °C 999.6 hPa South 29.1 km/h 46.7 km/h 90% 0.0 mm 28 W/m2
09:04 8.7 °C 7.2 °C 999.5 hPa South 26.6 km/h 46.7 km/h 90% 0.0 mm 33 W/m2
09:09 8.7 °C 7.2 °C 999.4 hPa South 30.9 km/h 46.7 km/h 90% 0.0 mm 44 W/m2
09:14 8.8 °C 7.2 °C 999.4 hPa South 31.3 km/h 46.7 km/h 90.2% 0.0 mm 56 W/m2
09:19 8.8 °C 7.4 °C 999.1 hPa South 33.1 km/h 48.3 km/h 90.8% 0.0 mm 74 W/m2
09:24 9 °C 7.6 °C 999.0 hPa South 31.8 km/h 48.3 km/h 91% 0.0 mm 76 W/m2
09:29 9.2 °C 7.8 °C 998.6 hPa South 34.3 km/h 51.5 km/h 91% 0.0 mm 72 W/m2
09:34 9.3 °C 7.8 °C 998.5 hPa South 35.7 km/h 56.3 km/h 90.3% 0.0 mm 65 W/m2
09:39 9.6 °C 8 °C 998.6 hPa South 44.7 km/h 59.5 km/h 90% 0.0 mm 60 W/m2
09:44 9.7 °C 8.1 °C 998.7 hPa South 38.5 km/h 57.9 km/h 90% 0.0 mm 56 W/m2
09:49 9.7 °C 8.2 °C 998.6 hPa South 44.1 km/h 61.2 km/h 90% 0.0 mm 54 W/m2
09:54 9.8 °C 8.2 °C 998.6 hPa South 40.4 km/h 59.5 km/h 90% 0.0 mm 51 W/m2
09:59 9.9 °C 8.3 °C 998.5 hPa South 41.9 km/h 57.9 km/h 90% 0.0 mm 40 W/m2
10:04 9.9 °C 8.4 °C 998.4 hPa South 39.1 km/h 57.9 km/h 90% 0.0 mm 40 W/m2
10:09 10 °C 8.5 °C 998.4 hPa South 39.2 km/h 54.7 km/h 90% 0.0 mm 49 W/m2
10:14 10.1 °C 8.6 °C 998.4 hPa South 40.2 km/h 54.7 km/h 90% 0.0 mm 53 W/m2
10:19 10.3 °C 8.7 °C 998.2 hPa South 41.3 km/h 57.9 km/h 90% 0.0 mm 53 W/m2
10:24 10.4 °C 8.8 °C 998.1 hPa South 42.3 km/h 57.9 km/h 90% 0.0 mm 69 W/m2
10:29 10.6 °C 9 °C 998.0 hPa South 43.5 km/h 69.2 km/h 90% 0.0 mm 72 W/m2
10:34 10.7 °C 8.9 °C 998.0 hPa South 45.6 km/h 69.2 km/h 89% 0.0 mm 77 W/m2
10:39 10.8 °C 9 °C 998.0 hPa SSW 43.9 km/h 57.9 km/h 89% 0.0 mm 77 W/m2
10:44 10.8 °C 9.1 °C 998.0 hPa South 43.1 km/h 59.5 km/h 89% 0.0 mm 76 W/m2
10:49 10.9 °C 9.2 °C 998.0 hPa South 45.1 km/h 59.5 km/h 89% 0.0 mm 88 W/m2
10:54 11 °C 9.3 °C 997.9 hPa South 41.5 km/h 66 km/h 89% 0.0 mm 97 W/m2
10:59 11.1 °C 9.3 °C 997.7 hPa South 41.7 km/h 66 km/h 89% 0.0 mm 95 W/m2
11:04 11.2 °C 9.4 °C 997.7 hPa South 46.6 km/h 59.5 km/h 89% 0.0 mm 102 W/m2
11:09 11.3 °C 9.5 °C 997.8 hPa South 47.2 km/h 61.2 km/h 89% 0.0 mm 113 W/m2
11:14 11.3 °C 9.6 °C 997.8 hPa South 45.3 km/h 59.5 km/h 89% 0.0 mm 137 W/m2
11:19 11.5 °C 9.8 °C 997.7 hPa South 48.4 km/h 70.8 km/h 89.2% 0.0 mm 146 W/m2
11:24 11.7 °C 9.9 °C 997.7 hPa South 43 km/h 70.8 km/h 89.2% 0.0 mm 146 W/m2
11:29 11.7 °C 10 °C 997.6 hPa South 43.4 km/h 61.2 km/h 89% 0.0 mm 169 W/m2
11:34 11.9 °C 10.1 °C 997.4 hPa South 44.7 km/h 66 km/h 89% 0.0 mm 171 W/m2
11:39 12.1 °C 10.3 °C 997.3 hPa South 46.2 km/h 66 km/h 89% 0.0 mm 155 W/m2
11:44 12.2 °C 10.4 °C 997.3 hPa South 47.1 km/h 62.8 km/h 89% 0.0 mm 153 W/m2
11:49 12.3 °C 10.6 °C 997.2 hPa South 43.6 km/h 62.8 km/h 89% 0.0 mm 146 W/m2
11:54 12.4 °C 10.6 °C 997.2 hPa South 46.7 km/h 66 km/h 89% 0.0 mm 128 W/m2
11:59 12.6 °C 10.8 °C 997.2 hPa South 44.2 km/h 66 km/h 89% 0.0 mm 167 W/m2
12:04 12.7 °C 10.9 °C 997.2 hPa South 42.9 km/h 62.8 km/h 88.6% 0.0 mm 167 W/m2
12:09 12.8 °C 10.9 °C 997.3 hPa South 43.6 km/h 64.4 km/h 88% 0.0 mm 176 W/m2
12:14 13 °C 11.1 °C 997.3 hPa South 38.4 km/h 64.4 km/h 88% 0.0 mm 193 W/m2
12:19 13.1 °C 11.2 °C 997.2 hPa South 43.8 km/h 66 km/h 88% 0.0 mm 209 W/m2
12:24 13.2 °C 11.3 °C 997.0 hPa South 38.9 km/h 64.4 km/h 88% 0.0 mm 171 W/m2
12:29 13.3 °C 11.3 °C 996.8 hPa South 38.8 km/h 57.9 km/h 88% 0.0 mm 243 W/m2
12:34 13.4 °C 11.4 °C 996.6 hPa South 33.3 km/h 56.3 km/h 88% 0.0 mm 211 W/m2
12:39 13.5 °C 11.4 °C 996.7 hPa South 39.7 km/h 56.3 km/h 87.3% 0.0 mm 230 W/m2
12:44 13.6 °C 11.6 °C 996.7 hPa South 42.3 km/h 64.4 km/h 87.8% 0.0 mm 230 W/m2
12:49 13.7 °C 11.6 °C 996.5 hPa South 41.1 km/h 64.4 km/h 87% 0.0 mm 227 W/m2
12:54 13.7 °C 11.6 °C 996.4 hPa South 39 km/h 57.9 km/h 87% 0.0 mm 120 W/m2
12:59 13.7 °C 11.6 °C 996.4 hPa South 39.1 km/h 57.9 km/h 87% 0.0 mm 114 W/m2
13:04 13.7 °C 11.6 °C 996.3 hPa South 42.5 km/h 57.9 km/h 87% 0.0 mm 86 W/m2
13:09 13.7 °C 11.6 °C 996.2 hPa South 40.3 km/h 62.8 km/h 87% 0.0 mm 97 W/m2
13:14 13.7 °C 11.6 °C 996.2 hPa South 42.7 km/h 64.4 km/h 87% 0.0 mm 142 W/m2
13:19 13.8 °C 11.7 °C 996.0 hPa South 39.9 km/h 59.5 km/h 87% 0.0 mm 142 W/m2
13:24 13.9 °C 11.8 °C 996.0 hPa South 42 km/h 59.5 km/h 87% 0.0 mm 120 W/m2
13:29 13.9 °C 11.8 °C 996.1 hPa SSW 42.9 km/h 64.4 km/h 87.4% 0.0 mm 86 W/m2
13:34 13.8 °C 11.9 °C 996.0 hPa SSW 45.1 km/h 70.8 km/h 88.4% 0.0 mm 65 W/m2
13:39 13.5 °C 11.9 °C 996.1 hPa SSW 41.7 km/h 61.2 km/h 89.5% 0.2 mm 74 W/m2
13:44 13.3 °C 11.9 °C 996.1 hPa SSW 32.7 km/h 48.3 km/h 90.8% 0.2 mm 32 W/m2
13:49 13.2 °C 11.8 °C 996.1 hPa SW 21.5 km/h 46.7 km/h 91.2% 0.2 mm 21 W/m2
13:54 13.1 °C 11.8 °C 995.9 hPa SW 19.4 km/h 37 km/h 92% 0.2 mm 25 W/m2
13:59 13 °C 11.8 °C 995.9 hPa WSW 18.4 km/h 30.6 km/h 92.2% 0.5 mm 23 W/m2
14:04 12.8 °C 11.7 °C 995.8 hPa SW 19.7 km/h 25.7 km/h 93% 1.5 mm 18 W/m2
14:09 12.7 °C 11.7 °C 995.5 hPa SW 18.3 km/h 22.5 km/h 93.8% 1.5 mm 18 W/m2
14:14 12.7 °C 11.8 °C 995.7 hPa SW 20.7 km/h 30.6 km/h 94% 1.8 mm 16 W/m2
14:19 12.6 °C 11.7 °C 995.7 hPa SW 21.7 km/h 38.6 km/h 94% 2.5 mm 44 W/m2
14:24 12.6 °C 11.8 °C 995.6 hPa SSW 30.2 km/h 38.6 km/h 94.8% 3.0 mm 49 W/m2
14:29 12.5 °C 11.7 °C 995.5 hPa SSW 30.2 km/h 41.8 km/h 94.8% 3.3 mm 47 W/m2
14:34 12.2 °C 11.3 °C 995.3 hPa SSW 35.7 km/h 48.3 km/h 94.5% 3.6 mm 53 W/m2
14:39 11.9 °C 11 °C 995.1 hPa SSW 33.9 km/h 46.7 km/h 94% 3.6 mm 70 W/m2
14:44 12.1 °C 11.1 °C 995.2 hPa SSW 30.3 km/h 41.8 km/h 93.6% 3.6 mm 70 W/m2
14:49 12.3 °C 11.2 °C 995.1 hPa SSW 29 km/h 43.5 km/h 92.5% 3.6 mm 74 W/m2
14:54 12.4 °C 11.1 °C 995.1 hPa SW 26.8 km/h 37 km/h 92% 3.6 mm 60 W/m2
14:59 12.3 °C 11.2 °C 995.1 hPa SSW 23.1 km/h 37 km/h 92.8% 3.6 mm 58 W/m2
15:04 12.3 °C 11.2 °C 995.0 hPa SSW 17 km/h 25.7 km/h 93% 3.0 mm 77 W/m2
15:09 12.2 °C 11.3 °C 994.5 hPa SSW 14.7 km/h 22.5 km/h 93.9% 2.3 mm 93 W/m2
15:14 12.2 °C 11.3 °C 994.3 hPa SSW 14.7 km/h 22.5 km/h 94% 2.3 mm 88 W/m2
15:19 12.3 °C 11.4 °C 994.2 hPa SSW 14.5 km/h 20.9 km/h 94% 2.0 mm 69 W/m2
15:24 12.3 °C 11.4 °C 994.2 hPa SSW 15.7 km/h 20.9 km/h 94.2% 1.5 mm 88 W/m2
15:29 12.3 °C 11.5 °C 993.9 hPa South 8.2 km/h 16.1 km/h 95% 1.0 mm 88 W/m2
15:34 12.3 °C 11.6 °C 993.7 hPa South 10.5 km/h 16.1 km/h 95% 0.5 mm 72 W/m2
15:39 12.4 °C 11.6 °C 993.4 hPa South 8.6 km/h 14.5 km/h 95% 0.5 mm 76 W/m2
15:44 12.6 °C 11.8 °C 993.3 hPa SSE 10.3 km/h 20.9 km/h 95% 0.2 mm 76 W/m2
15:49 12.6 °C 11.8 °C 993.3 hPa South 15.1 km/h 25.7 km/h 95% 0.2 mm 35 W/m2
15:54 12.4 °C 11.7 °C 993.4 hPa South 21.9 km/h 33.8 km/h 95% 0.2 mm 23 W/m2
15:59 12.4 °C 11.6 °C 993.3 hPa SSW 22.3 km/h 32.2 km/h 95% 0.8 mm 56 W/m2
16:04 12.3 °C 11.5 °C 992.7 hPa SSW 25.9 km/h 33.8 km/h 95% 1.0 mm 54 W/m2
16:09 12.3 °C 11.5 °C 992.5 hPa SSW 27.4 km/h 35.4 km/h 95% 1.3 mm 28 W/m2
16:14 12.2 °C 11.4 °C 992.5 hPa South 27.6 km/h 37 km/h 95% 1.3 mm 32 W/m2
16:19 12.1 °C 11.3 °C 992.5 hPa SSW 25.5 km/h 41.8 km/h 95% 1.3 mm 28 W/m2
16:24 12 °C 11.2 °C 992.5 hPa SSW 27.6 km/h 41.8 km/h 95% 1.5 mm 19 W/m2
16:29 11.8 °C 11.1 °C 992.2 hPa SSW 27.5 km/h 40.2 km/h 95% 2.0 mm 30 W/m2
16:34 11.8 °C 11 °C 991.9 hPa SSW 25.5 km/h 37 km/h 95% 2.3 mm 16 W/m2
16:39 11.7 °C 10.9 °C 991.9 hPa SW 28.6 km/h 37 km/h 95% 2.3 mm 11 W/m2
16:44 11.7 °C 10.9 °C 991.8 hPa SW 23.1 km/h 37 km/h 95% 2.8 mm 16 W/m2
16:49 11.7 °C 10.9 °C 992.0 hPa SW 27.3 km/h 40.2 km/h 95% 3.0 mm 11 W/m2
16:54 11.7 °C 11.1 °C 992.0 hPa SW 27.4 km/h 40.2 km/h 95.8% 3.6 mm 11 W/m2
16:59 11.7 °C 11.1 °C 991.9 hPa SW 23.9 km/h 35.4 km/h 96% 3.6 mm 7 W/m2
17:04 11.7 °C 11.1 °C 991.6 hPa SW 23.3 km/h 33.8 km/h 96% 3.3 mm 7 W/m2
17:09 11.7 °C 11.1 °C 991.5 hPa SW 23.7 km/h 38.6 km/h 96% 3.3 mm 5 W/m2
17:14 11.7 °C 11.1 °C 991.3 hPa SW 23 km/h 35.4 km/h 96% 3.3 mm 0 W/m2
17:19 11.7 °C 11.1 °C 991.1 hPa SW 21.8 km/h 35.4 km/h 96% 3.3 mm 0 W/m2
17:24 11.7 °C 11.1 °C 991.2 hPa SSW 24.4 km/h 35.4 km/h 96% 3.0 mm 0 W/m2
17:29 11.8 °C 11.1 °C 991.3 hPa SSW 25.4 km/h 33.8 km/h 96% 2.8 mm 0 W/m2
17:34 11.8 °C 11.2 °C 991.3 hPa SSW 24.2 km/h 35.4 km/h 96% 2.5 mm 0 W/m2
17:39 11.8 °C 11.2 °C 991.1 hPa SSW 25.4 km/h 35.4 km/h 96% 2.5 mm 0 W/m2
17:44 11.7 °C 11.1 °C 990.9 hPa SSW 22.3 km/h 32.2 km/h 96% 2.3 mm 0 W/m2
17:49 11.7 °C 11.1 °C 991.0 hPa SSW 24 km/h 37 km/h 96% 1.8 mm 0 W/m2
17:54 11.7 °C 11.1 °C 991.0 hPa SSW 24.4 km/h 33.8 km/h 96% 1.5 mm 0 W/m2
17:59 11.7 °C 11.1 °C 991.2 hPa SSW 24.1 km/h 33.8 km/h 96% 1.0 mm 0 W/m2
18:04 11.7 °C 11.1 °C 991.3 hPa SSW 27.1 km/h 38.6 km/h 96% 0.8 mm 0 W/m2
18:09 11.7 °C 11.1 °C 991.3 hPa SSW 26.6 km/h 38.6 km/h 96% 0.8 mm 0 W/m2
18:14 11.8 °C 11.2 °C 991.4 hPa SSW 24.9 km/h 33.8 km/h 96% 0.8 mm 0 W/m2
18:19 11.8 °C 11.2 °C 991.4 hPa SSW 25.7 km/h 37 km/h 96% 0.5 mm 0 W/m2
18:24 11.8 °C 11.1 °C 991.2 hPa SSW 27 km/h 38.6 km/h 96% 0.5 mm 0 W/m2
18:29 11.8 °C 11.2 °C 991.2 hPa SSW 28.9 km/h 40.2 km/h 95.9% 0.5 mm 0 W/m2
18:34 11.8 °C 11 °C 991.2 hPa SSW 27.5 km/h 40.2 km/h 95% 0.5 mm 0 W/m2
18:39 11.8 °C 11 °C 991.1 hPa SSW 28.8 km/h 38.6 km/h 95% 0.5 mm 0 W/m2
18:44 11.8 °C 11 °C 991.0 hPa SSW 30.9 km/h 46.7 km/h 95% 0.5 mm 0 W/m2
18:49 11.9 °C 11.1 °C 991.0 hPa SSW 30.4 km/h 38.6 km/h 95% 0.5 mm 0 W/m2
18:54 11.9 °C 11.1 °C 991.0 hPa SSW 29.5 km/h 38.6 km/h 95% 0.5 mm 0 W/m2
18:59 11.9 °C 11.1 °C 990.9 hPa SSW 27.6 km/h 40.2 km/h 95% 0.5 mm 0 W/m2
19:04 11.9 °C 11 °C 990.8 hPa SSW 25.9 km/h 40.2 km/h 94.2% 0.5 mm 0 W/m2
19:09 12 °C 11.1 °C 990.8 hPa SSW 26.5 km/h 35.4 km/h 94% 0.5 mm 0 W/m2
19:14 12 °C 11.1 °C 990.7 hPa South 27.5 km/h 37 km/h 94% 0.2 mm 0 W/m2
19:19 12 °C 11 °C 990.6 hPa South 25.9 km/h 37 km/h 94% 0.2 mm 0 W/m2
19:24 11.9 °C 11 °C 990.5 hPa South 27.7 km/h 45.1 km/h 94% 0.2 mm 0 W/m2
19:29 11.9 °C 11 °C 990.4 hPa South 29.9 km/h 45.1 km/h 94% 0.2 mm 0 W/m2
19:34 11.9 °C 10.9 °C 990.4 hPa South 29.1 km/h 41.8 km/h 94% 0.2 mm 0 W/m2
19:39 11.9 °C 11 °C 990.5 hPa SSW 29.5 km/h 48.3 km/h 94% 0.0 mm 0 W/m2
19:44 12 °C 11 °C 990.5 hPa SSW 33 km/h 48.3 km/h 93.6% 0.0 mm 0 W/m2
19:49 12.2 °C 11.1 °C 990.4 hPa SSW 34.8 km/h 45.1 km/h 93% 0.0 mm 0 W/m2
19:54 12.2 °C 11.1 °C 990.4 hPa SSW 33.8 km/h 49.9 km/h 92.9% 0.0 mm 0 W/m2
19:59 12.3 °C 11.1 °C 990.5 hPa SSW 31.7 km/h 49.9 km/h 92% 0.0 mm 0 W/m2
20:04 12.3 °C 11.1 °C 990.3 hPa SSW 30.7 km/h 40.2 km/h 92% 0.0 mm 0 W/m2
20:09 12.3 °C 11.1 °C 990.2 hPa SSW 29.7 km/h 40.2 km/h 92% 0.0 mm 0 W/m2
20:14 12.3 °C 11.1 °C 990.2 hPa SSW 26.9 km/h 37 km/h 92% 0.0 mm 0 W/m2
20:19 12.3 °C 11.1 °C 990.1 hPa SSW 30.1 km/h 38.6 km/h 92% 0.0 mm 0 W/m2
20:24 12.4 °C 11.1 °C 990.2 hPa SSW 30.9 km/h 40.2 km/h 92% 0.0 mm 0 W/m2
20:29 12.3 °C 11.1 °C 990.2 hPa SSW 25.8 km/h 38.6 km/h 92% 0.0 mm 0 W/m2
20:34 12.2 °C 11 °C 990.2 hPa SSW 23 km/h 33.8 km/h 92% 0.0 mm 0 W/m2
20:39 12.2 °C 10.9 °C 990.3 hPa SSW 26.2 km/h 33.8 km/h 92% 0.0 mm 0 W/m2
20:44 12.3 °C 11 °C 990.2 hPa SSW 29.7 km/h 41.8 km/h 92% 0.2 mm 0 W/m2
20:49 12.3 °C 11.1 °C 990.1 hPa SSW 28.7 km/h 40.2 km/h 92% 0.2 mm 0 W/m2
20:54 12.3 °C 11 °C 990.0 hPa SSW 29.8 km/h 40.2 km/h 92% 0.2 mm 0 W/m2
20:59 12.2 °C 10.9 °C 990.1 hPa SSW 32.7 km/h 41.8 km/h 92% 0.2 mm 0 W/m2
21:04 12.2 °C 10.9 °C 990.6 hPa SSW 31.7 km/h 40.2 km/h 92% 0.2 mm 0 W/m2
21:09 11.4 °C 9.8 °C 990.8 hPa West 26.7 km/h 35.4 km/h 90% 0.2 mm 0 W/m2
21:14 10.5 °C 9.1 °C 990.8 hPa West 20.2 km/h 32.2 km/h 90.9% 0.2 mm 0 W/m2
21:19 10.2 °C 8.9 °C 990.7 hPa West 16.8 km/h 24.1 km/h 92% 0.2 mm 0 W/m2
21:24 10 °C 8.9 °C 990.5 hPa WNW 14.9 km/h 22.5 km/h 92.6% 0.2 mm 0 W/m2
21:29 9.9 °C 8.8 °C 990.5 hPa West 12.9 km/h 19.3 km/h 93% 0.2 mm 0 W/m2
21:34 9.8 °C 8.7 °C 990.5 hPa West 12.7 km/h 19.3 km/h 93% 0.2 mm 0 W/m2
21:39 9.7 °C 8.6 °C 990.2 hPa West 7 km/h 14.5 km/h 93% 0.2 mm 0 W/m2
21:44 9.7 °C 8.6 °C 990.6 hPa West 6.7 km/h 11.3 km/h 93% 0.2 mm 0 W/m2
21:49 9.6 °C 8.7 °C 991.2 hPa West 8.1 km/h 14.5 km/h 94% 0.0 mm 0 W/m2
21:54 9.5 °C 8.6 °C 991.2 hPa West 6.5 km/h 14.5 km/h 94% 0.0 mm 0 W/m2
21:59 9.5 °C 8.6 °C 991.3 hPa West 6.7 km/h 14.5 km/h 94% 0.0 mm 0 W/m2
22:04 9.4 °C 8.5 °C 991.5 hPa WSW 7.5 km/h 11.3 km/h 94% 0.0 mm 0 W/m2
22:09 9.4 °C 8.5 °C 991.5 hPa WSW 8 km/h 14.5 km/h 94% 0.0 mm 0 W/m2
22:14 9.4 °C 8.5 °C 991.5 hPa WSW 7.3 km/h 14.5 km/h 94% 0.0 mm 0 W/m2
22:19 9.4 °C 8.5 °C 991.3 hPa WSW 6.4 km/h 11.3 km/h 94% 0.0 mm 0 W/m2
22:24 9.4 °C 8.5 °C 991.5 hPa West 4.7 km/h 11.3 km/h 94% 0.0 mm 0 W/m2
22:29 9.4 °C 8.5 °C 991.6 hPa West 5.3 km/h 11.3 km/h 94% 0.2 mm 0 W/m2
22:34 9.4 °C 8.5 °C 991.7 hPa West 4.1 km/h 9.7 km/h 94% 0.2 mm 0 W/m2
22:39 9.4 °C 8.5 °C 991.7 hPa WSW 7 km/h 16.1 km/h 94% 0.2 mm 0 W/m2
22:44 9.4 °C 8.5 °C 991.6 hPa WSW 8.5 km/h 16.1 km/h 94% 0.2 mm 0 W/m2
22:49 9.4 °C 8.5 °C 991.4 hPa West 5 km/h 11.3 km/h 94% 0.2 mm 0 W/m2
22:54 9.4 °C 8.5 °C 991.4 hPa West 6.1 km/h 11.3 km/h 94% 0.2 mm 0 W/m2
22:59 9.4 °C 8.5 °C 991.4 hPa WSW 5.2 km/h 12.9 km/h 94% 0.2 mm 0 W/m2
23:04 9.4 °C 8.5 °C 991.4 hPa WSW 6.1 km/h 12.9 km/h 94% 0.2 mm 0 W/m2
23:09 9.3 °C 8.3 °C 991.4 hPa WSW 5.6 km/h 11.3 km/h 93.6% 0.5 mm 0 W/m2
23:14 9.3 °C 8.2 °C 991.5 hPa WSW 6.8 km/h 12.9 km/h 93% 0.5 mm 0 W/m2
23:19 9.3 °C 8.2 °C 991.7 hPa SW 10.2 km/h 12.9 km/h 93% 0.5 mm 0 W/m2
23:24 9.2 °C 8.2 °C 991.9 hPa WSW 10.2 km/h 16.1 km/h 93.4% 0.5 mm 0 W/m2
23:29 9.2 °C 8.3 °C 991.8 hPa SW 10.9 km/h 16.1 km/h 94% 0.5 mm 0 W/m2
23:34 9.2 °C 8.3 °C 991.7 hPa SW 10.6 km/h 14.5 km/h 94% 0.2 mm 0 W/m2
23:39 9.2 °C 8.3 °C 991.9 hPa SW 11.9 km/h 17.7 km/h 94% 0.2 mm 0 W/m2
23:44 9.3 °C 8.4 °C 991.9 hPa SW 13.4 km/h 17.7 km/h 94% 0.2 mm 0 W/m2
23:49 9.3 °C 8.4 °C 991.9 hPa SW 14 km/h 19.3 km/h 94% 0.2 mm 0 W/m2
23:54 9.3 °C 8.4 °C 991.8 hPa SW 16.6 km/h 22.5 km/h 94% 0.2 mm 0 W/m2
23:59 9.3 °C 8.4 °C 992.0 hPa SW 17.6 km/h 30.6 km/h 93.9% 0.2 mm 0 W/m2
North Lincolnshire Weather
Compliments of Weather Underground - 2 mb

Data updates at regular intervals.